sensor_id;sensor_type;location;lat;lon;timestamp;temperature;humidity
17639;DHT22;8938;53.546;9.954;2022-11-18T00:01:13;6.50;99.90
17639;DHT22;8938;53.546;9.954;2022-11-18T00:03:39;6.50;99.90
17639;DHT22;8938;53.546;9.954;2022-11-18T00:06:06;6.40;99.90
17639;DHT22;8938;53.546;9.954;2022-11-18T00:08:32;6.40;99.90
17639;DHT22;8938;53.546;9.954;2022-11-18T00:11:04;6.50;99.90
17639;DHT22;8938;53.546;9.954;2022-11-18T00:13:29;6.50;99.90
17639;DHT22;8938;53.546;9.954;2022-11-18T00:16:14;6.50;99.90
17639;DHT22;8938;53.546;9.954;2022-11-18T00:18:39;6.50;99.90
17639;DHT22;8938;53.546;9.954;2022-11-18T00:21:07;6.50;99.90
17639;DHT22;8938;53.546;9.954;2022-11-18T00:23:33;6.40;99.90
17639;DHT22;8938;53.546;9.954;2022-11-18T00:28:29;6.40;99.90
17639;DHT22;8938;53.546;9.954;2022-11-18T00:31:10;6.30;99.90
17639;DHT22;8938;53.546;9.954;2022-11-18T00:33:36;6.40;99.90
17639;DHT22;8938;53.546;9.954;2022-11-18T00:36:03;6.30;99.90
17639;DHT22;8938;53.546;9.954;2022-11-18T00:38:29;6.20;99.90
17639;DHT22;8938;53.546;9.954;2022-11-18T00:40:59;6.20;99.90
17639;DHT22;8938;53.546;9.954;2022-11-18T00:43:25;6.20;99.90
17639;DHT22;8938;53.546;9.954;2022-11-18T00:45:50;6.20;99.90
17639;DHT22;8938;53.546;9.954;2022-11-18T00:48:16;6.10;99.90
17639;DHT22;8938;53.546;9.954;2022-11-18T00:50:49;6.10;99.90
17639;DHT22;8938;53.546;9.954;2022-11-18T00:53:15;6.10;99.90
17639;DHT22;8938;53.546;9.954;2022-11-18T00:55:41;6.10;99.90
17639;DHT22;8938;53.546;9.954;2022-11-18T00:58:06;6.10;99.90
17639;DHT22;8938;53.546;9.954;2022-11-18T01:00:32;6.00;99.90
17639;DHT22;8938;53.546;9.954;2022-11-18T01:02:57;6.10;99.90
17639;DHT22;8938;53.546;9.954;2022-11-18T01:05:23;6.10;99.90
17639;DHT22;8938;53.546;9.954;2022-11-18T01:07:48;6.00;99.90
17639;DHT22;8938;53.546;9.954;2022-11-18T01:10:15;6.00;99.90
17639;DHT22;8938;53.546;9.954;2022-11-18T01:12:40;6.00;99.90
17639;DHT22;8938;53.546;9.954;2022-11-18T01:15:24;6.00;99.90
17639;DHT22;8938;53.546;9.954;2022-11-18T01:17:50;6.00;99.90
17639;DHT22;8938;53.546;9.954;2022-11-18T01:20:16;6.00;99.90
17639;DHT22;8938;53.546;9.954;2022-11-18T01:22:41;5.90;99.90
17639;DHT22;8938;53.546;9.954;2022-11-18T01:25:08;5.90;99.90
17639;DHT22;8938;53.546;9.954;2022-11-18T01:27:33;6.00;99.90
17639;DHT22;8938;53.546;9.954;2022-11-18T01:29:59;5.90;99.90
17639;DHT22;8938;53.546;9.954;2022-11-18T01:32:24;5.90;99.90
17639;DHT22;8938;53.546;9.954;2022-11-18T01:34:50;5.90;99.90
17639;DHT22;8938;53.546;9.954;2022-11-18T01:37:15;6.30;99.90
17639;DHT22;8938;53.546;9.954;2022-11-18T01:39:41;5.90;99.90
17639;DHT22;8938;53.546;9.954;2022-11-18T01:42:13;5.80;99.90
17639;DHT22;8938;53.546;9.954;2022-11-18T01:45:39;5.90;99.90
17639;DHT22;8938;53.546;9.954;2022-11-18T01:48:04;5.80;99.90
17639;DHT22;8938;53.546;9.954;2022-11-18T01:50:31;5.80;99.90
17639;DHT22;8938;53.546;9.954;2022-11-18T01:53:03;5.80;99.90
17639;DHT22;8938;53.546;9.954;2022-11-18T01:55:32;5.70;99.90
17639;DHT22;8938;53.546;9.954;2022-11-18T01:58:45;5.80;99.90
17639;DHT22;8938;53.546;9.954;2022-11-18T02:00:52;5.80;99.90
17639;DHT22;8938;53.546;9.954;2022-11-18T02:03:17;5.80;99.90
17639;DHT22;8938;53.546;9.954;2022-11-18T02:05:46;5.70;99.90
17639;DHT22;8938;53.546;9.954;2022-11-18T02:08:13;5.70;99.90
17639;DHT22;8938;53.546;9.954;2022-11-18T02:10:39;5.70;99.90
17639;DHT22;8938;53.546;9.954;2022-11-18T02:13:04;5.70;99.90
17639;DHT22;8938;53.546;9.954;2022-11-18T02:15:45;5.70;99.90
17639;DHT22;8938;53.546;9.954;2022-11-18T02:18:33;5.80;99.90
17639;DHT22;8938;53.546;9.954;2022-11-18T02:24:21;5.80;99.90
17639;DHT22;8938;53.546;9.954;2022-11-18T02:27:35;5.80;99.90
17639;DHT22;8938;53.546;9.954;2022-11-18T02:30:12;5.80;99.90
17639;DHT22;8938;53.546;9.954;2022-11-18T02:35:32;5.80;99.90
17639;DHT22;8938;53.546;9.954;2022-11-18T02:40:41;5.80;99.90
17639;DHT22;8938;53.546;9.954;2022-11-18T02:43:08;5.90;99.90
17639;DHT22;8938;53.546;9.954;2022-11-18T02:45:38;5.80;99.90
17639;DHT22;8938;53.546;9.954;2022-11-18T02:48:08;5.80;99.90
17639;DHT22;8938;53.546;9.954;2022-11-18T02:50:35;5.90;99.90
17639;DHT22;8938;53.546;9.954;2022-11-18T02:53:04;5.80;99.90
17639;DHT22;8938;53.546;9.954;2022-11-18T02:55:33;5.90;99.90
17639;DHT22;8938;53.546;9.954;2022-11-18T02:58:00;5.80;99.90
17639;DHT22;8938;53.546;9.954;2022-11-18T03:00:27;5.90;99.90
17639;DHT22;8938;53.546;9.954;2022-11-18T03:02:52;5.80;99.90
17639;DHT22;8938;53.546;9.954;2022-11-18T03:05:20;5.90;99.90
17639;DHT22;8938;53.546;9.954;2022-11-18T03:07:53;5.90;99.90
17639;DHT22;8938;53.546;9.954;2022-11-18T03:10:22;5.90;99.90
17639;DHT22;8938;53.546;9.954;2022-11-18T03:13:19;6.00;99.90
17639;DHT22;8938;53.546;9.954;2022-11-18T03:16:08;6.00;99.90
17639;DHT22;8938;53.546;9.954;2022-11-18T03:18:47;6.10;99.90
17639;DHT22;8938;53.546;9.954;2022-11-18T03:21:25;6.10;99.90
17639;DHT22;8938;53.546;9.954;2022-11-18T03:24:09;6.00;99.90
17639;DHT22;8938;53.546;9.954;2022-11-18T03:26:38;6.00;99.90
17639;DHT22;8938;53.546;9.954;2022-11-18T03:29:12;5.90;99.90
17639;DHT22;8938;53.546;9.954;2022-11-18T03:34:18;6.00;99.90
17639;DHT22;8938;53.546;9.954;2022-11-18T03:36:48;6.10;99.90
17639;DHT22;8938;53.546;9.954;2022-11-18T03:39:21;6.10;99.90
17639;DHT22;8938;53.546;9.954;2022-11-18T03:41:54;6.30;99.90
17639;DHT22;8938;53.546;9.954;2022-11-18T03:44:22;6.20;99.90
17639;DHT22;8938;53.546;9.954;2022-11-18T03:47:02;6.20;99.90
17639;DHT22;8938;53.546;9.954;2022-11-18T03:49:33;6.10;99.90
17639;DHT22;8938;53.546;9.954;2022-11-18T03:52:06;6.10;99.90
17639;DHT22;8938;53.546;9.954;2022-11-18T03:54:35;6.10;99.90
17639;DHT22;8938;53.546;9.954;2022-11-18T03:57:09;6.10;99.90
17639;DHT22;8938;53.546;9.954;2022-11-18T03:59:43;6.20;99.90
17639;DHT22;8938;53.546;9.954;2022-11-18T04:04:35;6.10;99.90
17639;DHT22;8938;53.546;9.954;2022-11-18T04:07:07;6.10;99.90
17639;DHT22;8938;53.546;9.954;2022-11-18T04:09:41;6.10;99.90
17639;DHT22;8938;53.546;9.954;2022-11-18T04:12:13;6.10;99.90
17639;DHT22;8938;53.546;9.954;2022-11-18T04:14:41;6.10;99.90
17639;DHT22;8938;53.546;9.954;2022-11-18T04:17:13;6.10;99.90
17639;DHT22;8938;53.546;9.954;2022-11-18T04:19:39;6.10;99.90
17639;DHT22;8938;53.546;9.954;2022-11-18T04:22:06;6.00;99.90
17639;DHT22;8938;53.546;9.954;2022-11-18T04:24:32;5.90;99.90
17639;DHT22;8938;53.546;9.954;2022-11-18T04:26:57;6.00;99.90
17639;DHT22;8938;53.546;9.954;2022-11-18T04:29:23;5.90;99.90
17639;DHT22;8938;53.546;9.954;2022-11-18T04:31:48;5.80;99.90
17639;DHT22;8938;53.546;9.954;2022-11-18T04:34:14;5.90;99.90
17639;DHT22;8938;53.546;9.954;2022-11-18T04:36:39;5.90;99.90
17639;DHT22;8938;53.546;9.954;2022-11-18T04:39:05;5.80;99.90
17639;DHT22;8938;53.546;9.954;2022-11-18T04:41:31;5.80;99.90
17639;DHT22;8938;53.546;9.954;2022-11-18T04:44:15;5.90;99.90
17639;DHT22;8938;53.546;9.954;2022-11-18T04:46:41;5.90;99.90
17639;DHT22;8938;53.546;9.954;2022-11-18T04:49:08;6.00;99.90
17639;DHT22;8938;53.546;9.954;2022-11-18T04:51:34;5.90;99.90
17639;DHT22;8938;53.546;9.954;2022-11-18T04:54:01;5.90;99.90
17639;DHT22;8938;53.546;9.954;2022-11-18T04:56:27;6.00;99.90
17639;DHT22;8938;53.546;9.954;2022-11-18T04:58:52;6.00;99.90
17639;DHT22;8938;53.546;9.954;2022-11-18T05:01:18;6.00;99.90
17639;DHT22;8938;53.546;9.954;2022-11-18T05:03:43;5.90;99.90
17639;DHT22;8938;53.546;9.954;2022-11-18T05:06:09;6.00;99.90
17639;DHT22;8938;53.546;9.954;2022-11-18T05:08:34;6.00;99.90
17639;DHT22;8938;53.546;9.954;2022-11-18T05:11:05;5.90;99.90
17639;DHT22;8938;53.546;9.954;2022-11-18T05:13:49;6.20;99.90
17639;DHT22;8938;53.546;9.954;2022-11-18T05:16:15;5.90;99.90
17639;DHT22;8938;53.546;9.954;2022-11-18T05:18:40;5.80;99.90
17639;DHT22;8938;53.546;9.954;2022-11-18T05:21:06;5.80;99.90
17639;DHT22;8938;53.546;9.954;2022-11-18T05:23:31;5.80;99.90
17639;DHT22;8938;53.546;9.954;2022-11-18T05:26:08;5.80;99.90
17639;DHT22;8938;53.546;9.954;2022-11-18T05:28:34;5.90;99.90
17639;DHT22;8938;53.546;9.954;2022-11-18T05:31:09;5.90;99.90
17639;DHT22;8938;53.546;9.954;2022-11-18T05:33:35;6.00;99.90
17639;DHT22;8938;53.546;9.954;2022-11-18T05:36:09;6.00;99.90
17639;DHT22;8938;53.546;9.954;2022-11-18T05:38:35;5.90;99.90
17639;DHT22;8938;53.546;9.954;2022-11-18T05:41:01;5.80;99.90
17639;DHT22;8938;53.546;9.954;2022-11-18T05:43:28;5.80;99.90
17639;DHT22;8938;53.546;9.954;2022-11-18T05:45:54;5.80;99.90
17639;DHT22;8938;53.546;9.954;2022-11-18T05:48:20;5.70;99.90
17639;DHT22;8938;53.546;9.954;2022-11-18T05:50:47;5.60;99.90
17639;DHT22;8938;53.546;9.954;2022-11-18T05:53:13;5.60;99.90
17639;DHT22;8938;53.546;9.954;2022-11-18T05:55:57;5.60;99.90
17639;DHT22;8938;53.546;9.954;2022-11-18T05:58:24;5.60;99.90
17639;DHT22;8938;53.546;9.954;2022-11-18T06:00:52;5.50;99.90
17639;DHT22;8938;53.546;9.954;2022-11-18T06:03:23;5.50;99.90
17639;DHT22;8938;53.546;9.954;2022-11-18T06:05:53;5.60;99.90
17639;DHT22;8938;53.546;9.954;2022-11-18T06:08:19;5.50;99.90
17639;DHT22;8938;53.546;9.954;2022-11-18T06:10:46;5.40;99.90
17639;DHT22;8938;53.546;9.954;2022-11-18T06:13:17;5.40;99.90
17639;DHT22;8938;53.546;9.954;2022-11-18T06:15:44;5.40;99.90
17639;DHT22;8938;53.546;9.954;2022-11-18T06:18:23;5.40;99.90
17639;DHT22;8938;53.546;9.954;2022-11-18T06:20:52;5.50;99.90
17639;DHT22;8938;53.546;9.954;2022-11-18T06:23:18;5.60;99.90
17639;DHT22;8938;53.546;9.954;2022-11-18T06:25:44;5.50;99.90
17639;DHT22;8938;53.546;9.954;2022-11-18T06:28:11;5.50;99.90
17639;DHT22;8938;53.546;9.954;2022-11-18T06:30:38;5.50;99.90
17639;DHT22;8938;53.546;9.954;2022-11-18T06:33:03;5.40;99.90
17639;DHT22;8938;53.546;9.954;2022-11-18T06:35:29;5.40;99.90
17639;DHT22;8938;53.546;9.954;2022-11-18T06:37:54;5.40;99.90
17639;DHT22;8938;53.546;9.954;2022-11-18T06:40:20;5.30;99.90
17639;DHT22;8938;53.546;9.954;2022-11-18T06:42:45;5.30;99.90
17639;DHT22;8938;53.546;9.954;2022-11-18T06:45:29;5.40;99.90
17639;DHT22;8938;53.546;9.954;2022-11-18T06:47:56;5.40;99.90
17639;DHT22;8938;53.546;9.954;2022-11-18T06:50:22;5.40;99.90
17639;DHT22;8938;53.546;9.954;2022-11-18T06:52:47;5.50;99.90
17639;DHT22;8938;53.546;9.954;2022-11-18T06:55:13;5.50;99.90
17639;DHT22;8938;53.546;9.954;2022-11-18T06:57:39;5.60;99.90
17639;DHT22;8938;53.546;9.954;2022-11-18T07:00:05;5.50;99.90
17639;DHT22;8938;53.546;9.954;2022-11-18T07:02:30;5.40;99.90
17639;DHT22;8938;53.546;9.954;2022-11-18T07:04:56;5.30;99.90
17639;DHT22;8938;53.546;9.954;2022-11-18T07:07:22;5.40;99.90
17639;DHT22;8938;53.546;9.954;2022-11-18T07:09:47;5.40;99.90
17639;DHT22;8938;53.546;9.954;2022-11-18T07:12:13;5.40;99.90
17639;DHT22;8938;53.546;9.954;2022-11-18T07:14:38;5.30;99.90
17639;DHT22;8938;53.546;9.954;2022-11-18T07:17:04;5.30;99.90
17639;DHT22;8938;53.546;9.954;2022-11-18T07:19:29;5.30;99.90
17639;DHT22;8938;53.546;9.954;2022-11-18T07:21:55;5.30;99.90
17639;DHT22;8938;53.546;9.954;2022-11-18T07:24:21;5.50;99.90
17639;DHT22;8938;53.546;9.954;2022-11-18T07:26:46;5.60;99.90
17639;DHT22;8938;53.546;9.954;2022-11-18T07:29:12;5.60;99.90
17639;DHT22;8938;53.546;9.954;2022-11-18T07:31:37;5.60;99.90
17639;DHT22;8938;53.546;9.954;2022-11-18T07:34:04;5.50;99.90
17639;DHT22;8938;53.546;9.954;2022-11-18T07:36:30;5.50;99.90
17639;DHT22;8938;53.546;9.954;2022-11-18T07:38:58;5.60;99.90
17639;DHT22;8938;53.546;9.954;2022-11-18T07:41:25;5.50;99.90
17639;DHT22;8938;53.546;9.954;2022-11-18T07:43:53;5.50;99.90
17639;DHT22;8938;53.546;9.954;2022-11-18T07:48:48;5.40;99.90
17639;DHT22;8938;53.546;9.954;2022-11-18T07:51:16;5.50;99.90
17639;DHT22;8938;53.546;9.954;2022-11-18T07:53:41;5.70;99.90
17639;DHT22;8938;53.546;9.954;2022-11-18T07:56:08;5.70;99.90
17639;DHT22;8938;53.546;9.954;2022-11-18T07:58:34;5.70;99.90
17639;DHT22;8938;53.546;9.954;2022-11-18T08:01:11;5.70;99.90
17639;DHT22;8938;53.546;9.954;2022-11-18T08:03:38;5.70;99.90
17639;DHT22;8938;53.546;9.954;2022-11-18T08:06:05;5.70;99.90
17639;DHT22;8938;53.546;9.954;2022-11-18T08:08:31;5.70;99.90
17639;DHT22;8938;53.546;9.954;2022-11-18T08:10:58;5.70;99.90
17639;DHT22;8938;53.546;9.954;2022-11-18T08:13:24;5.70;99.90
17639;DHT22;8938;53.546;9.954;2022-11-18T08:15:49;5.70;99.90
17639;DHT22;8938;53.546;9.954;2022-11-18T08:18:15;5.50;99.90
17639;DHT22;8938;53.546;9.954;2022-11-18T08:20:41;5.60;99.90
17639;DHT22;8938;53.546;9.954;2022-11-18T08:23:06;5.60;99.90
17639;DHT22;8938;53.546;9.954;2022-11-18T08:25:32;5.70;99.90
17639;DHT22;8938;53.546;9.954;2022-11-18T08:27:57;5.90;99.90
17639;DHT22;8938;53.546;9.954;2022-11-18T08:30:26;5.70;99.90
17639;DHT22;8938;53.546;9.954;2022-11-18T08:32:51;5.60;99.90
17639;DHT22;8938;53.546;9.954;2022-11-18T08:35:17;5.60;99.90
17639;DHT22;8938;53.546;9.954;2022-11-18T08:37:42;5.60;99.90
17639;DHT22;8938;53.546;9.954;2022-11-18T08:40:08;5.80;99.90
17639;DHT22;8938;53.546;9.954;2022-11-18T08:42:34;5.80;99.90
17639;DHT22;8938;53.546;9.954;2022-11-18T08:45:04;5.80;99.90
17639;DHT22;8938;53.546;9.954;2022-11-18T08:47:33;5.80;99.90
17639;DHT22;8938;53.546;9.954;2022-11-18T08:49:58;5.80;99.90
17639;DHT22;8938;53.546;9.954;2022-11-18T08:52:24;5.80;99.90
17639;DHT22;8938;53.546;9.954;2022-11-18T08:54:49;5.80;99.90
17639;DHT22;8938;53.546;9.954;2022-11-18T08:57:15;5.70;99.90
17639;DHT22;8938;53.546;9.954;2022-11-18T08:59:40;5.80;99.90
17639;DHT22;8938;53.546;9.954;2022-11-18T09:02:19;5.70;99.90
17639;DHT22;8938;53.546;9.954;2022-11-18T09:04:49;5.70;99.90
17639;DHT22;8938;53.546;9.954;2022-11-18T11:43:34;6.70;99.90
17639;DHT22;8938;53.546;9.954;2022-11-18T11:49:09;6.70;99.90
17639;DHT22;8938;53.546;9.954;2022-11-18T11:51:52;6.70;99.90
17639;DHT22;8938;53.546;9.954;2022-11-18T11:57:03;6.60;99.90
17639;DHT22;8938;53.546;9.954;2022-11-18T12:02:48;6.60;99.90
17639;DHT22;8938;53.546;9.954;2022-11-18T12:05:34;6.60;99.90
17639;DHT22;8938;53.546;9.954;2022-11-18T12:08:23;6.60;99.90
17639;DHT22;8938;53.546;9.954;2022-11-18T12:11:05;6.60;99.90
17639;DHT22;8938;53.546;9.954;2022-11-18T12:13:56;6.70;99.90
17639;DHT22;8938;53.546;9.954;2022-11-18T12:16:53;6.70;99.90
17639;DHT22;8938;53.546;9.954;2022-11-18T12:19:20;6.80;99.90
17639;DHT22;8938;53.546;9.954;2022-11-18T12:21:53;6.80;99.90
17639;DHT22;8938;53.546;9.954;2022-11-18T12:24:23;6.90;99.90
17639;DHT22;8938;53.546;9.954;2022-11-18T12:26:55;6.90;99.90
17639;DHT22;8938;53.546;9.954;2022-11-18T12:29:23;7.00;99.90
17639;DHT22;8938;53.546;9.954;2022-11-18T12:31:58;7.00;99.90
17639;DHT22;8938;53.546;9.954;2022-11-18T12:34:43;7.00;99.90
17639;DHT22;8938;53.546;9.954;2022-11-18T12:48:26;7.00;99.90
17639;DHT22;8938;53.546;9.954;2022-11-18T12:50:57;7.00;99.90
17639;DHT22;8938;53.546;9.954;2022-11-18T12:53:42;6.90;99.90
17639;DHT22;8938;53.546;9.954;2022-11-18T12:58:54;7.00;99.90
17639;DHT22;8938;53.546;9.954;2022-11-18T13:01:23;7.00;99.90
17639;DHT22;8938;53.546;9.954;2022-11-18T13:03:48;7.00;99.90
17639;DHT22;8938;53.546;9.954;2022-11-18T13:06:24;7.00;99.90
17639;DHT22;8938;53.546;9.954;2022-11-18T13:09:03;7.00;99.90
17639;DHT22;8938;53.546;9.954;2022-11-18T13:11:32;7.10;99.90
17639;DHT22;8938;53.546;9.954;2022-11-18T13:17:32;7.10;99.90
17639;DHT22;8938;53.546;9.954;2022-11-18T13:20:36;7.00;99.90
17639;DHT22;8938;53.546;9.954;2022-11-18T13:25:53;6.90;99.90
17639;DHT22;8938;53.546;9.954;2022-11-18T13:33:35;6.70;99.90
17639;DHT22;8938;53.546;9.954;2022-11-18T13:36:01;6.70;99.90
17639;DHT22;8938;53.546;9.954;2022-11-18T13:38:27;6.70;99.90
17639;DHT22;8938;53.546;9.954;2022-11-18T13:40:52;6.60;99.90
17639;DHT22;8938;53.546;9.954;2022-11-18T13:43:35;6.60;99.90
17639;DHT22;8938;53.546;9.954;2022-11-18T13:46:13;6.50;99.90
17639;DHT22;8938;53.546;9.954;2022-11-18T13:48:48;6.60;99.90
17639;DHT22;8938;53.546;9.954;2022-11-18T13:51:17;6.60;99.90
17639;DHT22;8938;53.546;9.954;2022-11-18T13:53:42;6.70;99.90
17639;DHT22;8938;53.546;9.954;2022-11-18T13:56:18;6.70;99.90
17639;DHT22;8938;53.546;9.954;2022-11-18T14:01:21;6.60;99.90
17639;DHT22;8938;53.546;9.954;2022-11-18T14:09:29;6.50;99.90
17639;DHT22;8938;53.546;9.954;2022-11-18T14:14:32;6.50;99.90
17639;DHT22;8938;53.546;9.954;2022-11-18T14:17:21;6.50;99.90
17639;DHT22;8938;53.546;9.954;2022-11-18T14:19:51;6.60;99.90
17639;DHT22;8938;53.546;9.954;2022-11-18T14:24:55;6.60;99.90
17639;DHT22;8938;53.546;9.954;2022-11-18T14:27:37;6.60;99.90
17639;DHT22;8938;53.546;9.954;2022-11-18T14:30:36;6.50;99.90
17639;DHT22;8938;53.546;9.954;2022-11-18T14:33:20;6.50;99.90
17639;DHT22;8938;53.546;9.954;2022-11-18T14:35:52;6.40;99.90
17639;DHT22;8938;53.546;9.954;2022-11-18T14:38:38;6.40;99.90
17639;DHT22;8938;53.546;9.954;2022-11-18T14:41:08;6.40;99.90
17639;DHT22;8938;53.546;9.954;2022-11-18T14:43:34;6.40;99.90
17639;DHT22;8938;53.546;9.954;2022-11-18T14:46:04;6.40;99.90
17639;DHT22;8938;53.546;9.954;2022-11-18T14:48:31;6.30;99.90
17639;DHT22;8938;53.546;9.954;2022-11-18T14:50:58;6.40;99.90
17639;DHT22;8938;53.546;9.954;2022-11-18T14:53:23;6.40;99.90
17639;DHT22;8938;53.546;9.954;2022-11-18T14:55:51;6.30;99.90
17639;DHT22;8938;53.546;9.954;2022-11-18T14:58:18;6.30;99.90
17639;DHT22;8938;53.546;9.954;2022-11-18T15:00:46;6.40;99.90
17639;DHT22;8938;53.546;9.954;2022-11-18T15:03:12;6.30;99.90
17639;DHT22;8938;53.546;9.954;2022-11-18T15:05:38;6.40;99.90
17639;DHT22;8938;53.546;9.954;2022-11-18T15:08:04;6.30;99.90
17639;DHT22;8938;53.546;9.954;2022-11-18T15:10:29;6.40;99.90
17639;DHT22;8938;53.546;9.954;2022-11-18T15:12:55;6.30;99.90
17639;DHT22;8938;53.546;9.954;2022-11-18T15:15:20;6.30;99.90
17639;DHT22;8938;53.546;9.954;2022-11-18T15:17:46;6.40;99.90
17639;DHT22;8938;53.546;9.954;2022-11-18T15:20:13;6.40;99.90
17639;DHT22;8938;53.546;9.954;2022-11-18T15:22:40;6.40;99.90
17639;DHT22;8938;53.546;9.954;2022-11-18T15:25:06;6.40;99.90
17639;DHT22;8938;53.546;9.954;2022-11-18T15:27:31;6.40;99.90
17639;DHT22;8938;53.546;9.954;2022-11-18T15:29:57;6.30;99.90
17639;DHT22;8938;53.546;9.954;2022-11-18T15:32:23;6.30;99.90
17639;DHT22;8938;53.546;9.954;2022-11-18T15:34:48;6.20;99.90
17639;DHT22;8938;53.546;9.954;2022-11-18T15:37:14;6.30;99.90
17639;DHT22;8938;53.546;9.954;2022-11-18T15:39:40;6.30;99.90
17639;DHT22;8938;53.546;9.954;2022-11-18T15:42:05;6.30;99.90
17639;DHT22;8938;53.546;9.954;2022-11-18T15:44:31;6.30;99.90
17639;DHT22;8938;53.546;9.954;2022-11-18T15:46:56;6.30;99.90
17639;DHT22;8938;53.546;9.954;2022-11-18T15:49:24;6.30;99.90
17639;DHT22;8938;53.546;9.954;2022-11-18T15:51:50;6.30;99.90
17639;DHT22;8938;53.546;9.954;2022-11-18T15:54:15;6.20;99.90
17639;DHT22;8938;53.546;9.954;2022-11-18T15:56:41;6.20;99.90
17639;DHT22;8938;53.546;9.954;2022-11-18T15:59:09;6.20;99.90
17639;DHT22;8938;53.546;9.954;2022-11-18T16:01:37;6.20;99.90
17639;DHT22;8938;53.546;9.954;2022-11-18T16:04:05;6.20;99.90
17639;DHT22;8938;53.546;9.954;2022-11-18T16:06:31;6.20;99.90
17639;DHT22;8938;53.546;9.954;2022-11-18T16:08:57;6.20;99.90
17639;DHT22;8938;53.546;9.954;2022-11-18T16:11:23;6.20;99.90
17639;DHT22;8938;53.546;9.954;2022-11-18T16:14:11;6.30;99.90
17639;DHT22;8938;53.546;9.954;2022-11-18T16:16:39;6.30;99.90
17639;DHT22;8938;53.546;9.954;2022-11-18T16:19:10;6.30;99.90
17639;DHT22;8938;53.546;9.954;2022-11-18T16:21:38;6.30;99.90
17639;DHT22;8938;53.546;9.954;2022-11-18T16:24:07;6.20;99.90
17639;DHT22;8938;53.546;9.954;2022-11-18T16:26:33;6.30;99.90
17639;DHT22;8938;53.546;9.954;2022-11-18T16:28:59;6.30;99.90
17639;DHT22;8938;53.546;9.954;2022-11-18T16:31:25;6.30;99.90
17639;DHT22;8938;53.546;9.954;2022-11-18T16:34:16;6.30;99.90
17639;DHT22;8938;53.546;9.954;2022-11-18T16:36:45;6.20;99.90
17639;DHT22;8938;53.546;9.954;2022-11-18T16:39:16;6.30;99.90
17639;DHT22;8938;53.546;9.954;2022-11-18T16:41:43;6.20;99.90
17639;DHT22;8938;53.546;9.954;2022-11-18T16:44:11;6.20;99.90
17639;DHT22;8938;53.546;9.954;2022-11-18T16:46:38;6.20;99.90
17639;DHT22;8938;53.546;9.954;2022-11-18T16:49:05;6.20;99.90
17639;DHT22;8938;53.546;9.954;2022-11-18T16:51:32;6.20;99.90
17639;DHT22;8938;53.546;9.954;2022-11-18T16:54:00;6.20;99.90
17639;DHT22;8938;53.546;9.954;2022-11-18T16:56:28;6.30;99.90
17639;DHT22;8938;53.546;9.954;2022-11-18T16:58:59;6.30;99.90
17639;DHT22;8938;53.546;9.954;2022-11-18T17:01:25;6.30;99.90
17639;DHT22;8938;53.546;9.954;2022-11-18T17:03:55;6.30;99.90
17639;DHT22;8938;53.546;9.954;2022-11-18T17:06:22;6.30;99.90
17639;DHT22;8938;53.546;9.954;2022-11-18T17:08:48;6.30;99.90
17639;DHT22;8938;53.546;9.954;2022-11-18T17:11:14;6.30;99.90
17639;DHT22;8938;53.546;9.954;2022-11-18T17:13:40;6.30;99.90
17639;DHT22;8938;53.546;9.954;2022-11-18T17:16:17;6.20;99.90
17639;DHT22;8938;53.546;9.954;2022-11-18T17:18:44;6.30;99.90
17639;DHT22;8938;53.546;9.954;2022-11-18T17:21:12;6.30;99.90
17639;DHT22;8938;53.546;9.954;2022-11-18T17:23:39;6.20;99.90
17639;DHT22;8938;53.546;9.954;2022-11-18T17:26:06;6.20;99.90
17639;DHT22;8938;53.546;9.954;2022-11-18T17:28:34;6.10;99.90
17639;DHT22;8938;53.546;9.954;2022-11-18T17:31:07;6.10;99.90
17639;DHT22;8938;53.546;9.954;2022-11-18T17:33:34;6.10;99.90
17639;DHT22;8938;53.546;9.954;2022-11-18T17:36:07;6.10;99.90
17639;DHT22;8938;53.546;9.954;2022-11-18T17:38:35;6.10;99.90
17639;DHT22;8938;53.546;9.954;2022-11-18T17:41:01;6.00;99.90
17639;DHT22;8938;53.546;9.954;2022-11-18T17:43:27;6.10;99.90
17639;DHT22;8938;53.546;9.954;2022-11-18T17:45:54;6.10;99.90
17639;DHT22;8938;53.546;9.954;2022-11-18T17:48:21;6.10;99.90
17639;DHT22;8938;53.546;9.954;2022-11-18T17:50:47;6.10;99.90
17639;DHT22;8938;53.546;9.954;2022-11-18T17:53:14;6.00;99.90
17639;DHT22;8938;53.546;9.954;2022-11-18T17:55:39;6.10;99.90
17639;DHT22;8938;53.546;9.954;2022-11-18T17:58:06;6.00;99.90
17639;DHT22;8938;53.546;9.954;2022-11-18T18:00:31;5.90;99.90
17639;DHT22;8938;53.546;9.954;2022-11-18T18:02:58;5.90;99.90
17639;DHT22;8938;53.546;9.954;2022-11-18T18:05:24;5.80;99.90
17639;DHT22;8938;53.546;9.954;2022-11-18T18:07:49;5.90;99.90
17639;DHT22;8938;53.546;9.954;2022-11-18T18:10:16;5.80;99.90
17639;DHT22;8938;53.546;9.954;2022-11-18T18:12:41;5.90;99.90
17639;DHT22;8938;53.546;9.954;2022-11-18T18:15:25;5.80;99.90
17639;DHT22;8938;53.546;9.954;2022-11-18T18:17:51;5.80;99.90
17639;DHT22;8938;53.546;9.954;2022-11-18T18:20:17;5.90;99.90
17639;DHT22;8938;53.546;9.954;2022-11-18T18:22:42;5.90;99.90
17639;DHT22;8938;53.546;9.954;2022-11-18T18:25:08;5.90;99.90
17639;DHT22;8938;53.546;9.954;2022-11-18T18:27:34;5.80;99.90
17639;DHT22;8938;53.546;9.954;2022-11-18T18:30:00;5.80;99.90
17639;DHT22;8938;53.546;9.954;2022-11-18T18:32:25;5.90;99.90
17639;DHT22;8938;53.546;9.954;2022-11-18T18:34:51;5.90;99.90
17639;DHT22;8938;53.546;9.954;2022-11-18T18:37:16;5.90;99.90
17639;DHT22;8938;53.546;9.954;2022-11-18T18:39:42;6.00;99.90
17639;DHT22;8938;53.546;9.954;2022-11-18T18:42:08;6.00;99.90
17639;DHT22;8938;53.546;9.954;2022-11-18T18:44:33;6.00;99.90
17639;DHT22;8938;53.546;9.954;2022-11-18T18:47:17;6.00;99.90
17639;DHT22;8938;53.546;9.954;2022-11-18T18:49:43;6.00;99.90
17639;DHT22;8938;53.546;9.954;2022-11-18T18:52:08;5.90;99.90
17639;DHT22;8938;53.546;9.954;2022-11-18T18:54:34;6.00;99.90
17639;DHT22;8938;53.546;9.954;2022-11-18T18:57:00;6.00;99.90
17639;DHT22;8938;53.546;9.954;2022-11-18T18:59:27;5.90;99.90
17639;DHT22;8938;53.546;9.954;2022-11-18T19:01:52;6.00;99.90
17639;DHT22;8938;53.546;9.954;2022-11-18T19:04:18;5.90;99.90
17639;DHT22;8938;53.546;9.954;2022-11-18T19:06:45;5.80;99.90
17639;DHT22;8938;53.546;9.954;2022-11-18T19:09:11;5.70;99.90
17639;DHT22;8938;53.546;9.954;2022-11-18T19:11:37;5.80;99.90
17639;DHT22;8938;53.546;9.954;2022-11-18T19:14:22;5.80;99.90
17639;DHT22;8938;53.546;9.954;2022-11-18T19:16:48;5.70;99.90
17639;DHT22;8938;53.546;9.954;2022-11-18T19:19:23;5.60;99.90
17639;DHT22;8938;53.546;9.954;2022-11-18T19:22:07;5.60;99.90
17639;DHT22;8938;53.546;9.954;2022-11-18T19:24:34;5.70;99.90
17639;DHT22;8938;53.546;9.954;2022-11-18T19:27:00;5.70;99.90
17639;DHT22;8938;53.546;9.954;2022-11-18T19:29:25;5.70;99.90
17639;DHT22;8938;53.546;9.954;2022-11-18T19:31:52;5.70;99.90
17639;DHT22;8938;53.546;9.954;2022-11-18T19:34:17;5.80;99.90
17639;DHT22;8938;53.546;9.954;2022-11-18T19:36:43;5.80;99.90
17639;DHT22;8938;53.546;9.954;2022-11-18T19:39:08;5.80;99.90
17639;DHT22;8938;53.546;9.954;2022-11-18T19:41:34;5.80;99.90
17639;DHT22;8938;53.546;9.954;2022-11-18T19:43:59;5.80;99.90
17639;DHT22;8938;53.546;9.954;2022-11-18T19:46:25;5.80;99.90
17639;DHT22;8938;53.546;9.954;2022-11-18T19:48:50;5.90;99.90
17639;DHT22;8938;53.546;9.954;2022-11-18T19:51:16;5.90;99.90
17639;DHT22;8938;53.546;9.954;2022-11-18T19:53:42;5.80;99.90
17639;DHT22;8938;53.546;9.954;2022-11-18T19:56:14;5.80;99.90
17639;DHT22;8938;53.546;9.954;2022-11-18T19:58:41;5.80;99.90